createdAt,value
2018-09-17T00:01:31.475Z,8.13
2018-09-17T00:03:59.858Z,8.63
2018-09-17T00:06:28.094Z,8.40
2018-09-17T00:08:56.324Z,7.60
2018-09-17T00:11:24.544Z,8.43
2018-09-17T00:13:52.853Z,8.70
2018-09-17T00:16:21.075Z,8.37
2018-09-17T00:18:49.541Z,8.30
2018-09-17T00:21:17.827Z,8.77
2018-09-17T00:23:46.073Z,9.03
2018-09-17T00:26:14.304Z,8.70
2018-09-17T00:28:42.560Z,8.73
2018-09-17T00:31:10.765Z,8.53
2018-09-17T00:33:38.995Z,7.80
2018-09-17T00:36:07.221Z,8.23
2018-09-17T00:38:35.482Z,7.33
2018-09-17T00:41:03.691Z,8.20
2018-09-17T00:43:31.914Z,7.70
2018-09-17T00:46:00.108Z,7.87
2018-09-17T00:48:28.340Z,8.03
2018-09-17T00:50:56.548Z,8.10
2018-09-17T00:53:24.771Z,8.20
2018-09-17T00:55:52.988Z,7.40
2018-09-17T00:58:21.220Z,8.10
2018-09-17T01:00:49.444Z,8.00
2018-09-17T01:03:17.767Z,7.70
2018-09-17T01:05:45.981Z,8.40
2018-09-17T01:08:14.244Z,8.03
2018-09-17T01:10:42.480Z,7.93
2018-09-17T01:13:10.715Z,7.87
2018-09-17T01:15:38.961Z,7.27
2018-09-17T01:18:07.195Z,7.70
2018-09-17T01:20:35.406Z,7.77
2018-09-17T01:23:03.676Z,7.43
2018-09-17T01:25:31.924Z,7.90
2018-09-17T01:28:00.161Z,6.90
2018-09-17T01:30:28.429Z,7.37
2018-09-17T01:32:56.640Z,7.37
2018-09-17T01:35:24.867Z,7.60
2018-09-17T01:37:53.215Z,7.17
2018-09-17T01:40:21.470Z,6.97
2018-09-17T01:42:50.772Z,7.63
2018-09-17T01:45:18.986Z,7.47
2018-09-17T01:47:47.245Z,7.43
2018-09-17T01:50:15.495Z,7.23
2018-09-17T01:52:43.696Z,7.43
2018-09-17T01:55:11.941Z,7.17
2018-09-17T01:57:40.392Z,7.43
2018-09-17T02:00:08.672Z,7.07
2018-09-17T02:02:36.897Z,7.27
2018-09-17T02:05:05.128Z,7.27
2018-09-17T02:07:33.336Z,7.13
2018-09-17T02:10:01.581Z,6.83
2018-09-17T02:12:29.829Z,7.20
2018-09-17T02:14:58.069Z,7.13
2018-09-17T02:17:26.310Z,7.47
2018-09-17T02:19:54.532Z,7.27
2018-09-17T02:22:22.755Z,7.57
2018-09-17T02:24:51.036Z,7.87
2018-09-17T02:27:19.243Z,7.40
2018-09-17T02:29:47.481Z,7.50
2018-09-17T02:32:15.685Z,7.10
2018-09-17T02:34:44.116Z,6.50
2018-09-17T02:37:12.316Z,6.97
2018-09-17T02:39:40.668Z,7.07
2018-09-17T02:42:09.256Z,7.20
2018-09-17T02:44:37.840Z,6.90
2018-09-17T02:47:06.120Z,7.97
2018-09-17T02:49:34.331Z,7.30
2018-09-17T02:52:02.565Z,7.17
2018-09-17T02:54:30.856Z,7.07
2018-09-17T02:56:59.081Z,7.17
2018-09-17T02:59:27.293Z,6.57
2018-09-17T03:01:55.510Z,6.70
2018-09-17T03:04:23.765Z,6.80
2018-09-17T03:06:51.972Z,6.57
2018-09-17T03:09:20.225Z,6.70
2018-09-17T03:11:48.431Z,6.50
2018-09-17T03:14:16.663Z,6.73
2018-09-17T03:16:56.292Z,6.63
2018-09-17T03:19:24.557Z,6.93
2018-09-17T03:21:52.761Z,6.73
2018-09-17T03:24:21.010Z,6.87
2018-09-17T03:26:49.228Z,6.60
2018-09-17T03:29:17.440Z,6.57
2018-09-17T03:31:45.797Z,6.97
2018-09-17T03:34:14.045Z,6.60
2018-09-17T03:36:42.239Z,6.70
2018-09-17T03:39:10.445Z,7.00
2018-09-17T03:41:38.677Z,6.50
2018-09-17T03:44:06.948Z,7.63
2018-09-17T03:46:35.227Z,7.50
2018-09-17T03:49:03.504Z,7.30
2018-09-17T03:51:31.732Z,6.73
2018-09-17T03:53:59.925Z,6.87
2018-09-17T03:56:28.176Z,7.03
2018-09-17T03:58:56.399Z,7.20
2018-09-17T04:01:24.633Z,7.87
2018-09-17T04:03:52.845Z,7.80
2018-09-17T04:06:21.116Z,7.90
2018-09-17T04:08:49.332Z,8.30
2018-09-17T04:11:17.553Z,8.20
2018-09-17T04:13:45.786Z,7.23
2018-09-17T04:16:14.032Z,7.90
2018-09-17T04:18:42.232Z,8.13
2018-09-17T04:21:10.448Z,9.07
2018-09-17T04:23:39.164Z,7.60
2018-09-17T04:26:09.312Z,8.23
2018-09-17T04:28:38.050Z,8.20
2018-09-17T04:31:06.472Z,8.20
2018-09-17T04:33:36.647Z,7.97
2018-09-17T04:36:04.945Z,7.53
2018-09-17T04:38:34.295Z,6.97
2018-09-17T04:41:02.692Z,7.30
2018-09-17T04:43:34.208Z,7.47
2018-09-17T04:46:03.743Z,7.83
2018-09-17T04:48:31.962Z,8.47
2018-09-17T04:51:00.200Z,9.10
2018-09-17T04:53:28.411Z,7.20
2018-09-17T04:55:56.660Z,8.03
2018-09-17T04:58:24.893Z,8.20
2018-09-17T05:00:53.132Z,8.43
2018-09-17T05:03:21.332Z,8.03
2018-09-17T05:05:49.577Z,7.53
2018-09-17T05:08:17.830Z,8.13
2018-09-17T05:10:46.092Z,7.67
2018-09-17T05:13:14.394Z,8.37
2018-09-17T05:15:42.589Z,8.27
2018-09-17T05:18:10.797Z,9.33
2018-09-17T05:20:39.078Z,9.10
2018-09-17T05:23:07.260Z,9.20
2018-09-17T05:25:35.498Z,8.70
2018-09-17T05:28:03.829Z,8.67
2018-09-17T05:30:32.061Z,8.60
2018-09-17T05:33:00.320Z,8.50
2018-09-17T05:35:28.636Z,9.50
2018-09-17T05:37:56.849Z,10.47
2018-09-17T05:40:25.137Z,10.20
2018-09-17T05:42:53.371Z,9.93
2018-09-17T05:45:21.612Z,9.53
2018-09-17T05:47:49.824Z,10.20
2018-09-17T05:50:18.063Z,9.40
2018-09-17T05:52:46.340Z,10.10
2018-09-17T05:55:14.553Z,11.03
2018-09-17T05:57:42.774Z,10.40
2018-09-17T06:00:10.971Z,9.73
2018-09-17T06:02:39.220Z,10.07
2018-09-17T06:05:07.464Z,10.13
2018-09-17T06:07:35.705Z,9.80
2018-09-17T06:10:08.196Z,9.63
2018-09-17T06:12:36.429Z,9.50
2018-09-17T06:15:04.669Z,9.13
2018-09-17T06:17:33.002Z,9.07
2018-09-17T06:20:01.159Z,9.53
2018-09-17T06:22:29.388Z,9.00
2018-09-17T06:24:57.614Z,9.73
2018-09-17T06:27:25.988Z,8.30
2018-09-17T06:29:54.236Z,9.27
2018-09-17T06:32:22.487Z,8.57
2018-09-17T06:34:50.693Z,8.57
2018-09-17T06:37:18.938Z,7.63
2018-09-17T06:39:47.144Z,8.53
2018-09-17T06:42:15.375Z,7.83
2018-09-17T06:44:43.613Z,7.87
2018-09-17T06:47:11.965Z,7.90
2018-09-17T06:49:40.231Z,7.80
2018-09-17T06:52:08.489Z,8.17
2018-09-17T06:54:36.696Z,7.70
2018-09-17T06:57:04.994Z,7.70
2018-09-17T06:59:33.331Z,7.80
2018-09-17T07:02:02.033Z,8.33
2018-09-17T07:04:30.248Z,8.03
2018-09-17T07:06:58.736Z,8.27
2018-09-17T07:09:26.981Z,7.90
2018-09-17T07:11:55.240Z,8.17
2018-09-17T07:14:23.481Z,7.33
2018-09-17T07:16:51.716Z,6.77
2018-09-17T07:19:19.943Z,6.37
2018-09-17T07:21:48.228Z,5.53
2018-09-17T07:24:16.460Z,4.97
2018-09-17T07:26:44.696Z,4.10
2018-09-17T07:29:12.917Z,4.30
2018-09-17T07:31:41.147Z,3.87
2018-09-17T07:34:09.358Z,3.90
2018-09-17T07:36:37.667Z,3.70
2018-09-17T07:39:08.519Z,3.67
2018-09-17T07:41:36.781Z,3.50
2018-09-17T07:44:05.048Z,3.25
2018-09-17T07:46:33.308Z,2.92
2018-09-17T07:49:01.517Z,2.85
2018-09-17T07:51:29.733Z,3.05
2018-09-17T07:53:57.973Z,3.08
2018-09-17T07:56:26.189Z,3.30
2018-09-17T07:58:54.471Z,2.87
2018-09-17T08:01:22.684Z,2.90
2018-09-17T08:03:51.150Z,3.00
2018-09-17T08:06:19.363Z,3.00
2018-09-17T08:08:47.591Z,2.87
2018-09-17T08:11:15.800Z,2.83
2018-09-17T08:13:44.061Z,3.10
2018-09-17T08:16:12.271Z,3.45
2018-09-17T08:18:40.493Z,2.98
2018-09-17T08:21:08.732Z,2.80
2018-09-17T08:23:36.993Z,2.37
2018-09-17T08:26:05.215Z,2.87
2018-09-17T08:28:33.460Z,3.30
2018-09-17T08:31:01.667Z,2.50
2018-09-17T08:33:29.897Z,2.50
2018-09-17T08:35:58.137Z,2.62
2018-09-17T08:38:26.380Z,2.62
2018-09-17T08:40:54.639Z,2.35
2018-09-17T08:43:22.876Z,2.40
2018-09-17T08:45:51.105Z,2.52
2018-09-17T08:48:19.341Z,2.85
2018-09-17T08:50:47.585Z,2.75
2018-09-17T08:53:15.814Z,2.60
2018-09-17T08:55:44.984Z,2.17
2018-09-17T08:58:18.684Z,3.25
2018-09-17T09:00:52.200Z,2.30
2018-09-17T09:03:25.896Z,2.10
2018-09-17T09:05:59.580Z,3.00
2018-09-17T09:08:27.814Z,2.60
2018-09-17T09:11:01.529Z,2.50
2018-09-17T09:13:38.896Z,2.30
2018-09-17T09:16:08.001Z,2.40
2018-09-17T09:18:36.232Z,2.50
2018-09-17T09:21:04.464Z,2.10
2018-09-17T09:23:32.684Z,2.22
2018-09-17T09:26:00.969Z,2.12
2018-09-17T09:28:29.284Z,2.50
2018-09-17T09:30:57.561Z,2.25
2018-09-17T09:33:25.848Z,2.40
2018-09-17T09:35:54.056Z,2.30
2018-09-17T09:38:22.276Z,2.22
2018-09-17T09:40:50.551Z,2.45
2018-09-17T09:43:18.787Z,2.00
2018-09-17T09:45:47.050Z,2.20
2018-09-17T09:48:15.276Z,2.27
2018-09-17T09:50:44.236Z,2.30
2018-09-17T09:53:12.444Z,2.30
2018-09-17T09:55:40.683Z,2.30
2018-09-17T09:58:08.903Z,2.37
2018-09-17T10:00:42.492Z,2.00
2018-09-17T10:03:17.258Z,2.33
2018-09-17T10:05:46.028Z,2.20
2018-09-17T10:08:14.240Z,2.20
2018-09-17T10:10:47.768Z,2.10
2018-09-17T10:13:21.327Z,2.12
2018-09-17T10:15:54.211Z,1.92
2018-09-17T10:18:27.773Z,1.90
2018-09-17T10:20:56.035Z,1.70
2018-09-17T10:23:24.241Z,1.82
2018-09-17T10:25:52.525Z,1.70
2018-09-17T10:28:20.781Z,1.60
2018-09-17T10:30:49.161Z,1.98
2018-09-17T10:33:17.402Z,1.92
2018-09-17T10:35:45.632Z,2.00
2018-09-17T10:38:13.844Z,1.62
2018-09-17T10:40:42.152Z,1.90
2018-09-17T10:43:10.401Z,3.40
2018-09-17T10:45:38.628Z,2.00
2018-09-17T10:48:06.887Z,2.08
2018-09-17T10:50:35.096Z,2.02
2018-09-17T10:53:03.321Z,1.80
2018-09-17T10:55:31.589Z,1.60
2018-09-17T10:57:59.824Z,1.80
2018-09-17T11:00:28.047Z,1.52
2018-09-17T11:02:56.327Z,1.70
2018-09-17T11:05:24.528Z,2.17
2018-09-17T11:07:52.760Z,1.85
2018-09-17T11:10:20.996Z,1.55
2018-09-17T11:12:49.244Z,2.10
2018-09-17T11:15:17.592Z,1.70
2018-09-17T11:17:45.875Z,1.55
2018-09-17T11:20:14.125Z,1.82
2018-09-17T11:22:42.367Z,1.50
2018-09-17T11:25:10.628Z,1.70
2018-09-17T11:27:38.872Z,1.52
2018-09-17T11:30:07.081Z,1.55
2018-09-17T11:32:35.315Z,1.70
2018-09-17T11:35:03.538Z,1.95
2018-09-17T11:37:31.782Z,1.70
2018-09-17T11:40:00.008Z,1.67
2018-09-17T11:42:28.237Z,1.62
2018-09-17T11:44:56.488Z,1.70
2018-09-17T11:47:24.712Z,1.50
2018-09-17T11:49:53.161Z,1.70
2018-09-17T11:52:21.396Z,1.70
2018-09-17T11:54:49.688Z,1.42
2018-09-17T11:57:17.945Z,1.82
2018-09-17T11:59:46.203Z,1.70
2018-09-17T12:02:19.940Z,1.70
2018-09-17T12:04:53.662Z,1.70
2018-09-17T12:07:27.477Z,1.60
2018-09-17T12:09:55.711Z,1.60
2018-09-17T12:12:23.984Z,1.85
2018-09-17T12:14:52.237Z,1.70
2018-09-17T12:17:20.517Z,1.70
2018-09-17T12:19:48.836Z,2.00
2018-09-17T12:22:17.060Z,2.05
2018-09-17T12:24:45.308Z,1.98
2018-09-17T12:27:13.524Z,1.57
2018-09-17T12:29:41.789Z,1.60
2018-09-17T12:32:10.059Z,1.90
2018-09-17T12:34:38.280Z,1.92
2018-09-17T12:37:06.801Z,1.70
2018-09-17T12:39:35.053Z,1.60
2018-09-17T12:42:03.288Z,1.60
2018-09-17T12:44:31.532Z,1.90
2018-09-17T12:46:59.763Z,1.70
2018-09-17T12:49:27.984Z,1.80
2018-09-17T12:51:56.207Z,1.85
2018-09-17T12:54:24.447Z,1.80
2018-09-17T12:56:52.795Z,1.95
2018-09-17T12:59:21.044Z,1.60
2018-09-17T13:01:49.316Z,1.72
2018-09-17T13:04:17.589Z,1.60
2018-09-17T13:06:45.824Z,1.70
2018-09-17T13:09:14.096Z,1.70
2018-09-17T13:11:42.359Z,1.60
2018-09-17T13:14:10.591Z,1.70
2018-09-17T13:16:39.732Z,1.80
2018-09-17T13:19:10.505Z,1.70
2018-09-17T13:21:38.733Z,1.50
2018-09-17T13:24:07.468Z,1.45
2018-09-17T13:26:35.908Z,1.72
2018-09-17T13:29:04.304Z,1.57
2018-09-17T13:31:32.725Z,2.45
2018-09-17T13:34:00.945Z,1.70
2018-09-17T13:36:29.200Z,1.60
2018-09-17T13:38:57.721Z,1.70
2018-09-17T13:41:25.959Z,1.60
2018-09-17T13:43:54.168Z,1.50
2018-09-17T13:46:22.448Z,1.85
2018-09-17T13:48:50.711Z,1.40
2018-09-17T13:51:18.986Z,1.80
2018-09-17T13:53:47.194Z,2.00
2018-09-17T13:56:15.523Z,1.60
2018-09-17T13:58:43.790Z,1.60
2018-09-17T14:01:12.072Z,1.60
2018-09-17T14:03:40.312Z,1.82
2018-09-17T14:06:08.536Z,2.00
2018-09-17T14:08:36.761Z,1.75
2018-09-17T14:11:05.057Z,1.60
2018-09-17T14:13:33.273Z,1.42
2018-09-17T14:16:01.551Z,1.67
2018-09-17T14:18:30.324Z,1.67
2018-09-17T14:20:58.579Z,1.98
2018-09-17T14:23:26.826Z,2.35
2018-09-17T14:25:55.170Z,1.50
2018-09-17T14:28:23.390Z,1.50
2018-09-17T14:30:51.672Z,1.95
2018-09-17T14:33:25.430Z,2.00
2018-09-17T14:35:53.664Z,1.50
2018-09-17T14:38:21.978Z,1.70
2018-09-17T14:40:50.234Z,1.70
2018-09-17T14:43:18.524Z,1.60
2018-09-17T14:45:46.797Z,1.82
2018-09-17T14:48:15.048Z,1.90
2018-09-17T14:50:43.347Z,2.00
2018-09-17T14:53:11.621Z,2.50
2018-09-17T14:55:39.890Z,1.67
2018-09-17T14:58:08.267Z,1.70
2018-09-17T15:00:36.496Z,1.95
2018-09-17T15:03:04.727Z,2.17
2018-09-17T15:05:32.979Z,1.90
2018-09-17T15:08:01.329Z,1.92
2018-09-17T15:10:29.526Z,2.45
2018-09-17T15:12:58.105Z,1.80
2018-09-17T15:15:26.508Z,1.70
2018-09-17T15:17:54.723Z,1.92
2018-09-17T15:20:23.091Z,3.00
2018-09-17T15:22:51.224Z,2.47
2018-09-17T15:25:20.489Z,2.80
2018-09-17T15:27:48.871Z,3.10
2018-09-17T15:30:17.219Z,2.72
2018-09-17T15:32:45.482Z,2.40
2018-09-17T15:35:13.918Z,2.10
2018-09-17T15:37:42.177Z,2.08
2018-09-17T15:40:10.538Z,2.60
2018-09-17T15:42:38.710Z,2.92
2018-09-17T15:45:06.932Z,2.17
2018-09-17T15:47:35.192Z,2.30
2018-09-17T15:50:03.469Z,2.60
2018-09-17T15:52:31.688Z,2.58
2018-09-17T15:54:59.892Z,2.62
2018-09-17T15:57:28.185Z,2.60
2018-09-17T15:59:56.414Z,2.33
2018-09-17T16:02:24.630Z,2.47
2018-09-17T16:04:52.831Z,2.80
2018-09-17T16:07:21.061Z,2.35
2018-09-17T16:09:49.327Z,2.50
2018-09-17T16:12:17.596Z,2.72
2018-09-17T16:14:45.822Z,3.10
2018-09-17T16:17:14.085Z,3.10
2018-09-17T16:19:42.333Z,2.55
2018-09-17T16:22:10.585Z,2.70
2018-09-17T16:24:38.852Z,2.35
2018-09-17T16:27:07.232Z,3.45
2018-09-17T16:29:35.452Z,3.00
2018-09-17T16:32:04.428Z,3.37
2018-09-17T16:34:32.648Z,3.70
2018-09-17T16:37:00.884Z,4.50
2018-09-17T16:39:29.136Z,4.30
2018-09-17T16:41:57.404Z,4.65
2018-09-17T16:44:25.655Z,4.47
2018-09-17T16:46:53.865Z,3.47
2018-09-17T16:49:22.085Z,3.80
2018-09-17T16:51:50.336Z,3.10
2018-09-17T16:54:19.189Z,3.33
2018-09-17T16:56:47.417Z,3.47
2018-09-17T16:59:15.754Z,3.30
2018-09-17T17:01:43.916Z,3.20
2018-09-17T17:04:12.321Z,3.10
2018-09-17T17:06:40.543Z,3.20
2018-09-17T17:09:09.788Z,3.93
2018-09-17T17:11:38.025Z,3.73
2018-09-17T17:14:06.292Z,3.20
2018-09-17T17:16:34.538Z,2.97
2018-09-17T17:19:02.899Z,3.47
2018-09-17T17:21:31.066Z,3.50
2018-09-17T17:23:59.978Z,3.70
2018-09-17T17:26:28.233Z,3.17
2018-09-17T17:28:56.480Z,3.20
2018-09-17T17:31:24.689Z,3.50
2018-09-17T17:33:53.146Z,3.40
2018-09-17T17:36:21.410Z,2.80
2018-09-17T17:38:49.647Z,3.20
2018-09-17T17:41:17.985Z,2.83
2018-09-17T17:43:46.436Z,2.60
2018-09-17T17:46:14.757Z,2.57
2018-09-17T17:48:42.901Z,2.60
2018-09-17T17:51:11.121Z,2.80
2018-09-17T17:53:39.335Z,2.87
2018-09-17T17:56:07.585Z,2.57
2018-09-17T17:58:35.864Z,3.10
2018-09-17T18:01:04.223Z,2.60
2018-09-17T18:03:32.420Z,2.77
2018-09-17T18:06:00.616Z,3.10
2018-09-17T18:08:28.876Z,2.87
2018-09-17T18:10:57.088Z,3.00
2018-09-17T18:13:25.345Z,3.40
2018-09-17T18:15:54.232Z,3.40
2018-09-17T18:18:22.496Z,3.30
2018-09-17T18:20:50.726Z,3.17
2018-09-17T18:23:18.976Z,3.03
2018-09-17T18:25:47.340Z,3.30
2018-09-17T18:28:15.612Z,3.50
2018-09-17T18:30:43.865Z,3.60
2018-09-17T18:33:12.095Z,3.87
2018-09-17T18:35:40.343Z,3.90
2018-09-17T18:38:08.586Z,3.80
2018-09-17T18:40:36.855Z,3.73
2018-09-17T18:43:05.063Z,3.80
2018-09-17T18:45:33.312Z,4.10
2018-09-17T18:48:01.567Z,4.07
2018-09-17T18:50:29.791Z,4.87
2018-09-17T18:52:58.028Z,4.67
2018-09-17T18:55:26.264Z,5.40
2018-09-17T18:57:54.484Z,5.30
2018-09-17T19:00:22.736Z,5.87
2018-09-17T19:02:51.019Z,5.10
2018-09-17T19:05:19.261Z,5.47
2018-09-17T19:07:47.496Z,5.03
2018-09-17T19:10:15.944Z,5.47
2018-09-17T19:12:44.258Z,6.00
2018-09-17T19:15:17.983Z,5.77
2018-09-17T19:17:46.211Z,5.70
2018-09-17T19:20:14.525Z,5.80
2018-09-17T19:22:48.156Z,6.03
2018-09-17T19:25:16.533Z,6.10
2018-09-17T19:27:50.090Z,6.30
2018-09-17T19:30:18.419Z,6.00
2018-09-17T19:32:46.633Z,6.00
2018-09-17T19:35:14.902Z,5.73
2018-09-17T19:37:48.565Z,6.00
2018-09-17T19:40:20.362Z,6.40
2018-09-17T19:42:49.251Z,5.83
2018-09-17T19:45:22.978Z,5.97
2018-09-17T19:47:52.145Z,5.63
2018-09-17T19:50:25.945Z,5.70
2018-09-17T19:52:54.108Z,5.90
2018-09-17T19:55:22.361Z,5.80
2018-09-17T19:57:56.151Z,6.37
2018-09-17T20:00:24.412Z,5.70
2018-09-17T20:02:52.623Z,6.03
2018-09-17T20:05:26.184Z,5.70
2018-09-17T20:07:54.420Z,5.90
2018-09-17T20:10:22.677Z,5.53
2018-09-17T20:12:51.717Z,5.47
2018-09-17T20:15:19.980Z,6.03
2018-09-17T20:17:48.193Z,5.23
2018-09-17T20:20:16.411Z,5.10
2018-09-17T20:22:44.635Z,5.30
2018-09-17T20:25:12.917Z,5.50
2018-09-17T20:27:41.207Z,6.70
2018-09-17T20:30:09.506Z,6.93
2018-09-17T20:32:37.748Z,6.83
2018-09-17T20:35:06.033Z,7.30
2018-09-17T20:37:34.276Z,7.07
2018-09-17T20:40:02.496Z,8.20
2018-09-17T20:42:30.728Z,8.77
2018-09-17T20:44:58.954Z,7.90
2018-09-17T20:47:27.256Z,7.10
2018-09-17T20:49:55.535Z,6.87
2018-09-17T20:52:23.741Z,6.73
2018-09-17T20:54:52.010Z,6.27
2018-09-17T20:57:20.238Z,6.27
2018-09-17T20:59:48.468Z,7.17
2018-09-17T21:02:16.756Z,7.40
2018-09-17T21:04:44.983Z,7.30
2018-09-17T21:07:13.223Z,7.47
2018-09-17T21:09:41.508Z,6.50
2018-09-17T21:12:09.791Z,6.47
2018-09-17T21:14:38.042Z,6.20
2018-09-17T21:17:06.293Z,6.67
2018-09-17T21:19:34.538Z,6.30
2018-09-17T21:22:02.768Z,6.67
2018-09-17T21:24:31.058Z,5.63
2018-09-17T21:26:59.316Z,6.63
2018-09-17T21:29:27.561Z,6.30
2018-09-17T21:31:55.788Z,6.47
2018-09-17T21:34:25.028Z,6.60
2018-09-17T21:36:53.342Z,6.17
2018-09-17T21:39:21.512Z,6.20
2018-09-17T21:41:49.756Z,6.63
2018-09-17T21:44:17.965Z,6.07
2018-09-17T21:46:46.218Z,6.07
2018-09-17T21:49:14.515Z,6.37
2018-09-17T21:51:42.763Z,5.93
2018-09-17T21:54:10.978Z,6.17
2018-09-17T21:56:39.217Z,6.40
2018-09-17T21:59:07.707Z,6.27
2018-09-17T22:01:35.928Z,6.07
2018-09-17T22:04:04.253Z,6.33
2018-09-17T22:06:32.501Z,7.10
2018-09-17T22:09:00.708Z,6.30
2018-09-17T22:11:28.947Z,6.37
2018-09-17T22:13:57.348Z,6.93
2018-09-17T22:16:25.813Z,7.23
2018-09-17T22:18:54.047Z,7.00
2018-09-17T22:21:22.298Z,7.00
2018-09-17T22:23:50.532Z,6.67
2018-09-17T22:26:18.824Z,6.90
2018-09-17T22:28:47.069Z,6.97
2018-09-17T22:31:15.294Z,6.90
2018-09-17T22:33:43.537Z,7.20
2018-09-17T22:36:11.752Z,7.40
2018-09-17T22:38:39.980Z,7.97
2018-09-17T22:41:08.240Z,7.10
2018-09-17T22:43:36.479Z,7.20
2018-09-17T22:46:04.692Z,7.00
2018-09-17T22:48:32.924Z,6.70
2018-09-17T22:51:01.178Z,7.30
2018-09-17T22:53:29.425Z,6.80
2018-09-17T22:55:57.676Z,7.53
2018-09-17T22:58:25.909Z,7.80
2018-09-17T23:00:54.113Z,7.07
2018-09-17T23:03:22.348Z,7.13
2018-09-17T23:05:50.595Z,7.10
2018-09-17T23:08:18.842Z,7.93
2018-09-17T23:10:47.085Z,8.20
2018-09-17T23:13:15.398Z,7.43
2018-09-17T23:15:43.720Z,8.00
2018-09-17T23:18:11.967Z,7.67
2018-09-17T23:20:40.183Z,7.70
2018-09-17T23:23:08.456Z,7.90
2018-09-17T23:25:36.680Z,8.80
2018-09-17T23:28:04.976Z,9.00
2018-09-17T23:30:33.265Z,8.53
2018-09-17T23:33:01.521Z,8.43
2018-09-17T23:35:29.755Z,8.70
2018-09-17T23:37:58.009Z,9.50
2018-09-17T23:40:26.296Z,9.53
2018-09-17T23:42:54.716Z,9.27
2018-09-17T23:45:22.928Z,8.97
2018-09-17T23:47:51.189Z,8.03
2018-09-17T23:50:19.392Z,9.00
2018-09-17T23:52:47.639Z,8.80
2018-09-17T23:55:15.835Z,8.67
2018-09-17T23:57:44.102Z,9.43
